BBC Delaware — V2CN9 — position and weather

sailwx.info

Track history (hours):
 
Tides and Currents Weather Stations Pressure Air Temp Water Temp Dewpoint Dewpoint Depression Visibility Wind Speed Wind Dir Waves Ship Positions

BBC Delaware

Last reported at 2016-Jul-23 13:30 UTC. Time now 2016-Jul-27 09:40 UTC.
Position S 23°27' W 041°04'.

Length 138 m; draft 8 m.

Type: Cargo ship. MMSI: 305057000.

Date/timePositionNaut miles runAvg speedWind from/ knotsBaromVisibWave heightAir tempDewpointWater temp
2016-Jul-23 13:30S 23°27' W 041°04'27613.2
2016-Jul-22 16:33S 24°04' W 046°03'1313.5
2016-Jul-22 15:33S 24°04' W 046°18'6 6.2
2016-Jul-22 14:33S 23°58' W 046°18'  
2016-Jul-19 04:24S 23°56' W 046°20'4 4.7
2016-Jul-19 03:34S 23°60' W 046°20'6 6.1
2016-Jul-19 02:34S 24°06' W 046°19'0 0.1
2016-Jul-19 01:23S 24°06' W 046°19'0 0.0
2016-Jul-19 00:29S 24°06' W 046°19'0 0.0
2016-Jul-18 23:29S 24°06' W 046°19'0 0.0
2016-Jul-18 22:32S 24°06' W 046°19'0 0.0
2016-Jul-18 21:29S 24°06' W 046°19'0 0.0
2016-Jul-18 20:23S 24°06' W 046°19'0 0.0
2016-Jul-18 19:32S 24°06' W 046°19'0 0.0
2016-Jul-18 18:29S 24°06' W 046°19'0 0.0
2016-Jul-18 17:26S 24°06' W 046°19'0 0.0
2016-Jul-18 16:23S 24°06' W 046°19'0 0.0
2016-Jul-18 15:33S 24°06' W 046°19'0 0.0
2016-Jul-18 14:30S 24°06' W 046°19'0 0.0
2016-Jul-18 13:30S 24°06' W 046°19'0 0.0
2016-Jul-18 12:30S 24°06' W 046°19'0 0.0
2016-Jul-18 11:24S 24°06' W 046°19'2 2.1
2016-Jul-18 10:33S 24°07' W 046°20'1111.3
2016-Jul-18 09:33S 24°16' W 046°28'1313.3
2016-Jul-18 08:33S 24°28' W 046°33'1413.6
2016-Jul-18 07:33S 24°41' W 046°39'  
2016-Jul-15 15:16S 34°45' W 057°36'1013.6
2016-Jul-15 14:34S 34°44' W 057°47'4 3.8
2016-Jul-15 13:34S 34°44' W 057°52'8 7.8
2016-Jul-15 12:33S 34°40' W 058°00'  
Track history (hours):
 
Tides and Currents Weather Stations Pressure Air Temp Water Temp Dewpoint Dewpoint Depression Visibility Wind Speed Wind Dir Waves Ship Positions

BBC Delaware

Last reported at 2016-Jul-23 13:30 UTC. Time now 2016-Jul-27 09:40 UTC.
Position S 23°27' W 041°04'.

Length 138 m; draft 8 m.

Type: Cargo ship. MMSI: 305057000.

Date/timePositionNaut miles runAvg speedWind from/ knotsBaromVisibWave heightAir tempDewpointWater temp
2016-Jul-23 13:30S 23°27' W 041°04'27613.2
2016-Jul-22 16:33S 24°04' W 046°03'1313.5
2016-Jul-22 15:33S 24°04' W 046°18'6 6.2
2016-Jul-22 14:33S 23°58' W 046°18'  
2016-Jul-19 04:24S 23°56' W 046°20'4 4.7
2016-Jul-19 03:34S 23°60' W 046°20'6 6.1
2016-Jul-19 02:34S 24°06' W 046°19'0 0.1
2016-Jul-19 01:23S 24°06' W 046°19'0 0.0
2016-Jul-19 00:29S 24°06' W 046°19'0 0.0
2016-Jul-18 23:29S 24°06' W 046°19'0 0.0
2016-Jul-18 22:32S 24°06' W 046°19'0 0.0
2016-Jul-18 21:29S 24°06' W 046°19'0 0.0
2016-Jul-18 20:23S 24°06' W 046°19'0 0.0
2016-Jul-18 19:32S 24°06' W 046°19'0 0.0
2016-Jul-18 18:29S 24°06' W 046°19'0 0.0
2016-Jul-18 17:26S 24°06' W 046°19'0 0.0
2016-Jul-18 16:23S 24°06' W 046°19'0 0.0
2016-Jul-18 15:33S 24°06' W 046°19'0 0.0
2016-Jul-18 14:30S 24°06' W 046°19'0 0.0
2016-Jul-18 13:30S 24°06' W 046°19'0 0.0
2016-Jul-18 12:30S 24°06' W 046°19'0 0.0
2016-Jul-18 11:24S 24°06' W 046°19'2 2.1
2016-Jul-18 10:33S 24°07' W 046°20'1111.3
2016-Jul-18 09:33S 24°16' W 046°28'1313.3
2016-Jul-18 08:33S 24°28' W 046°33'1413.6
2016-Jul-18 07:33S 24°41' W 046°39'  
2016-Jul-15 15:16S 34°45' W 057°36'1013.6
2016-Jul-15 14:34S 34°44' W 057°47'4 3.8
2016-Jul-15 13:34S 34°44' W 057°52'8 7.8
2016-Jul-15 12:33S 34°40' W 058°00'  

Dump ship's entire track history